Time;durP1;ratioP1;P1;durP2;ratioP2;P2;SDS_P1;SDS_P2;PMS_P1;PMS_P2;Temp;Humidity;BMP_temperature;BMP_pressure;BME280_temperature;BME280_humidity;BME280_pressure;Samples;Min_cycle;Max_cycle;Signal;HPM_P1;HPM_P2
2022/11/08 00:01:42;;;;;;;6.07;2.40;;;13.10;99.90;;;;;;5013244;28;20211;-75
2022/11/08 00:04:11;;;;;;;5.93;1.83;;;13.10;99.90;;;;;;5012232;28;20602;-75
2022/11/08 00:14:53;;;;;;;4.93;2.30;;;12.90;99.90;;;;;;5013180;28;20242;-77
2022/11/08 00:17:21;;;;;;;5.77;1.77;;;12.90;99.90;;;;;;5012616;28;20570;-75
2022/11/08 00:19:48;;;;;;;5.53;2.33;;;13.00;99.90;;;;;;5013070;28;20574;-75
2022/11/08 00:22:16;;;;;;;7.10;2.00;;;13.00;99.90;;;;;;5012542;28;20681;-76
2022/11/08 00:24:43;;;;;;;4.37;1.57;;;12.90;99.90;;;;;;5013098;28;20231;-75
2022/11/08 00:27:14;;;;;;;5.00;1.60;;;12.90;99.90;;;;;;5012957;28;20207;-75
2022/11/08 00:29:41;;;;;;;4.87;1.60;;;12.80;99.90;;;;;;5016566;28;20557;-76
2022/11/08 00:32:12;;;;;;;9.23;2.23;;;12.90;99.90;;;;;;5016130;28;20207;-75
2022/11/08 00:34:39;;;;;;;6.17;1.97;;;12.80;99.90;;;;;;5016357;28;20211;-75
2022/11/08 00:37:06;;;;;;;8.47;2.10;;;12.80;99.90;;;;;;5016202;28;20219;-75
2022/11/08 00:39:33;;;;;;;7.80;1.80;;;12.80;99.90;;;;;;5016501;28;20213;-75
2022/11/08 00:42:00;;;;;;;4.97;1.87;;;12.80;99.90;;;;;;5016473;28;20207;-77
2022/11/08 00:44:29;;;;;;;6.20;2.17;;;12.80;99.90;;;;;;5016451;28;20235;-76
2022/11/08 00:46:56;;;;;;;3.63;2.00;;;12.70;99.90;;;;;;5016104;28;20268;-75
2022/11/08 00:49:23;;;;;;;5.40;2.00;;;12.80;99.90;;;;;;5015961;28;20211;-75
2022/11/08 00:51:49;;;;;;;6.07;1.90;;;12.80;99.90;;;;;;5016430;28;20211;-75
2022/11/08 00:54:19;;;;;;;5.97;2.00;;;12.80;99.90;;;;;;5016211;28;20290;-74
2022/11/08 00:56:46;;;;;;;5.70;1.97;;;12.80;99.90;;;;;;5016361;28;20221;-76
2022/11/08 00:59:15;;;;;;;5.23;1.87;;;12.80;99.90;;;;;;5016006;28;20591;-74
2022/11/08 01:01:43;;;;;;;5.63;2.50;;;12.80;99.90;;;;;;5015940;28;20215;-75
2022/11/08 01:04:12;;;;;;;7.67;2.40;;;12.90;99.90;;;;;;5015745;28;20245;-75
2022/11/08 01:06:39;;;;;;;6.03;2.37;;;12.80;99.90;;;;;;5015897;28;20227;-75
2022/11/08 01:09:07;;;;;;;5.67;2.33;;;12.80;99.90;;;;;;5015708;28;20685;-75
2022/11/08 01:11:34;;;;;;;5.87;2.40;;;12.80;99.90;;;;;;5015983;28;20277;-75
2022/11/08 01:14:01;;;;;;;7.77;2.60;;;12.80;99.90;;;;;;5015641;28;20693;-75
2022/11/08 01:16:30;;;;;;;4.37;2.20;;;12.80;99.90;;;;;;5015280;28;20200;-75
2022/11/08 01:19:01;;;;;;;6.57;2.70;;;12.80;99.90;;;;;;5015866;28;20206;-75
2022/11/08 01:21:28;;;;;;;5.57;2.60;;;12.80;99.90;;;;;;5015623;28;20678;-75
2022/11/08 01:23:55;;;;;;;6.97;3.13;;;12.80;99.90;;;;;;5015430;28;20590;-75
2022/11/08 01:26:24;;;;;;;7.57;3.03;;;12.90;99.90;;;;;;5015561;28;20199;-75
2022/11/08 01:28:51;;;;;;;6.20;3.03;;;12.80;99.90;;;;;;5014644;28;20245;-74
2022/11/08 01:31:20;;;;;;;7.18;3.30;;;12.80;99.90;;;;;;5024913;28;20942;-75
2022/11/08 01:33:47;;;;;;;6.63;2.87;;;12.80;99.90;;;;;;5031702;28;20211;-75
2022/11/08 01:36:17;;;;;;;9.60;3.37;;;12.90;99.90;;;;;;5025123;28;20206;-75
2022/11/08 01:38:44;;;;;;;7.77;3.17;;;12.90;99.90;;;;;;5024357;28;20207;-75
2022/11/08 01:41:13;;;;;;;6.50;2.77;;;12.80;99.90;;;;;;5018182;28;20211;-75
2022/11/08 01:43:42;;;;;;;5.63;2.80;;;12.80;99.90;;;;;;5014401;28;20231;-75
2022/11/08 01:46:33;;;;;;;6.10;2.93;;;12.80;99.90;;;;;;5015799;28;20214;-74
2022/11/08 01:49:17;;;;;;;6.00;2.17;;;12.80;99.90;;;;;;5025021;28;20211;-76
2022/11/08 01:51:51;;;;;;;6.00;2.20;;;12.80;99.90;;;;;;5014707;28;20215;-75
2022/11/08 01:54:25;;;;;;;6.63;2.03;;;12.90;99.90;;;;;;5014535;28;20211;-75
2022/11/08 01:56:54;;;;;;;6.70;2.60;;;12.90;99.90;;;;;;5015167;28;20599;-75
2022/11/08 01:59:21;;;;;;;5.23;2.13;;;12.90;99.90;;;;;;5014309;28;20575;-74
2022/11/08 02:01:48;;;;;;;3.20;1.70;;;12.90;99.90;;;;;;5017861;28;20200;-75
2022/11/08 02:04:16;;;;;;;6.83;2.10;;;12.90;99.90;;;;;;5033567;28;20223;-74
2022/11/08 02:06:45;;;;;;;6.30;1.70;;;13.00;99.90;;;;;;5019472;28;20654;-75
2022/11/08 02:09:16;;;;;;;4.43;1.87;;;12.90;99.90;;;;;;5014425;28;20203;-75
2022/11/08 02:11:44;;;;;;;4.63;1.70;;;12.80;99.90;;;;;;5015080;28;20204;-75
2022/11/08 02:14:11;;;;;;;4.07;1.83;;;12.80;99.90;;;;;;5027146;28;20215;-76
2022/11/08 02:16:38;;;;;;;5.13;1.80;;;12.90;99.90;;;;;;5014614;28;20214;-75
2022/11/08 02:19:09;;;;;;;4.80;1.57;;;12.80;99.90;;;;;;5014095;28;20204;-80
2022/11/08 02:21:42;;;;;;;3.47;1.80;;;12.90;99.90;;;;;;5014565;28;20210;-76
2022/11/08 02:24:12;;;;;;;5.63;1.83;;;12.80;99.90;;;;;;5014388;28;20238;-75
2022/11/08 02:26:39;;;;;;;3.50;1.60;;;12.80;99.90;;;;;;5014419;28;20218;-74
2022/11/08 02:29:27;;;;;;;6.30;1.83;;;12.70;99.90;;;;;;5027838;28;20204;-75
2022/11/08 02:31:55;;;;;;;4.77;1.73;;;12.70;99.90;;;;;;5013812;28;20451;-76
2022/11/08 02:34:26;;;;;;;4.83;1.57;;;12.80;99.90;;;;;;5013766;28;20218;-74
2022/11/08 02:36:55;;;;;;;4.43;1.67;;;12.80;99.90;;;;;;5014388;28;20206;-77
2022/11/08 02:39:23;;;;;;;3.30;1.57;;;12.80;99.90;;;;;;5027879;28;20204;-75
2022/11/08 02:41:50;;;;;;;4.33;1.30;;;12.90;99.90;;;;;;5013591;28;20681;-75
2022/11/08 02:44:17;;;;;;;3.90;1.87;;;12.90;99.90;;;;;;5028034;28;20233;-75
2022/11/08 02:46:44;;;;;;;4.37;1.77;;;12.90;99.90;;;;;;5021493;28;20210;-75
2022/11/08 02:49:11;;;;;;;4.27;1.90;;;13.00;99.90;;;;;;5033760;28;20206;-74
2022/11/08 02:51:38;;;;;;;3.90;1.50;;;13.00;99.90;;;;;;5033350;28;20210;-75
2022/11/08 02:54:05;;;;;;;2.90;1.60;;;12.90;99.90;;;;;;5021754;28;20206;-76
2022/11/08 02:56:33;;;;;;;3.80;1.60;;;12.90;99.90;;;;;;5013347;28;20677;-75
2022/11/08 02:59:00;;;;;;;3.23;1.47;;;12.90;99.90;;;;;;5013721;28;20654;-75
2022/11/08 03:01:27;;;;;;;5.50;1.70;;;12.90;99.90;;;;;;5013607;28;20210;-75
2022/11/08 03:03:53;;;;;;;6.25;2.03;;;12.90;99.90;;;;;;5016229;28;20468;-75
2022/11/08 03:06:20;;;;;;;5.43;1.87;;;12.90;99.90;;;;;;5018852;28;20227;-74
2022/11/08 03:08:47;;;;;;;4.40;1.67;;;12.80;99.90;;;;;;5019265;28;20557;-74
2022/11/08 03:11:14;;;;;;;3.13;1.70;;;12.80;99.90;;;;;;5018508;28;20697;-75
2022/11/08 03:13:42;;;;;;;3.53;1.67;;;12.80;99.90;;;;;;5017196;28;20627;-75
2022/11/08 03:16:09;;;;;;;3.90;1.47;;;12.80;99.90;;;;;;5018148;28;20213;-85
2022/11/08 03:18:35;;;;;;;4.03;1.57;;;12.80;99.90;;;;;;5017379;28;20210;-75
2022/11/08 03:21:02;;;;;;;4.43;1.77;;;12.70;99.90;;;;;;5023168;28;20203;-75
2022/11/08 03:23:29;;;;;;;3.40;1.67;;;12.70;99.90;;;;;;5013119;28;20218;-75
2022/11/08 03:25:56;;;;;;;5.07;1.30;;;12.80;99.90;;;;;;5013735;28;20207;-74
2022/11/08 03:28:23;;;;;;;2.33;1.50;;;12.70;99.90;;;;;;5015491;28;20222;-74
2022/11/08 03:30:52;;;;;;;3.70;1.30;;;12.70;99.90;;;;;;5014272;28;20213;-75
2022/11/08 03:33:20;;;;;;;3.63;1.65;;;12.70;99.90;;;;;;5013028;28;20428;-76
2022/11/08 03:35:47;;;;;;;1.87;1.23;;;12.70;99.90;;;;;;5013006;28;20703;-75
2022/11/08 03:38:14;;;;;;;2.80;1.20;;;12.70;99.90;;;;;;5013410;28;20680;-74
2022/11/08 03:40:41;;;;;;;1.67;1.37;;;12.60;99.90;;;;;;5013350;28;20209;-74
2022/11/08 03:43:08;;;;;;;2.77;1.37;;;12.60;99.90;;;;;;5013394;28;20207;-75
2022/11/08 03:45:35;;;;;;;3.70;1.80;;;12.50;99.90;;;;;;5013309;28;20257;-75
2022/11/08 03:48:04;;;;;;;2.60;1.30;;;12.60;99.90;;;;;;5013311;28;20217;-76
2022/11/08 03:50:31;;;;;;;3.53;1.60;;;12.60;99.90;;;;;;5013390;28;20204;-76
2022/11/08 03:52:58;;;;;;;2.47;1.43;;;12.60;99.90;;;;;;5013291;28;20211;-75
2022/11/08 03:55:26;;;;;;;2.57;1.40;;;12.60;99.90;;;;;;5012957;28;20211;-74
2022/11/08 03:57:54;;;;;;;2.47;1.30;;;12.60;99.90;;;;;;5013216;28;20209;-76
2022/11/08 04:00:23;;;;;;;2.93;1.93;;;12.50;99.90;;;;;;5013141;28;20207;-75
2022/11/08 04:02:51;;;;;;;2.42;1.50;;;12.50;99.90;;;;;;5013540;28;20440;-75
2022/11/08 04:05:19;;;;;;;2.80;1.30;;;12.60;99.90;;;;;;5016814;28;20316;-75
2022/11/08 04:07:46;;;;;;;2.60;1.30;;;12.50;99.90;;;;;;5016998;28;20322;-75
2022/11/08 04:10:14;;;;;;;5.20;1.37;;;12.60;99.90;;;;;;5016911;28;20207;-75
2022/11/08 04:15:26;;;;;;;3.83;1.50;;;12.50;99.90;;;;;;5017131;28;20574;-80
2022/11/08 04:23:26;;;;;;;1.53;1.23;;;12.50;99.90;;;;;;5016537;28;20217;-76
2022/11/08 04:25:57;;;;;;;1.73;1.17;;;12.50;99.90;;;;;;5016744;28;20238;-75
2022/11/08 04:28:25;;;;;;;4.40;1.30;;;12.50;99.90;;;;;;5016414;28;20211;-75
2022/11/08 04:30:54;;;;;;;1.67;1.57;;;12.50;99.90;;;;;;5016940;28;20206;-75
2022/11/08 04:33:21;;;;;;;5.50;1.77;;;12.40;99.90;;;;;;5016568;28;20210;-74
2022/11/08 04:35:49;;;;;;;6.40;1.40;;;12.50;99.90;;;;;;5016499;28;20219;-75
2022/11/08 04:38:17;;;;;;;3.77;1.63;;;12.50;99.90;;;;;;5016088;28;20202;-75
2022/11/08 04:40:45;;;;;;;2.33;1.30;;;12.40;99.90;;;;;;5016394;28;20226;-75
2022/11/08 04:43:12;;;;;;;2.43;1.40;;;12.60;99.90;;;;;;5016264;28;20673;-75
2022/11/08 04:45:40;;;;;;;2.33;1.50;;;12.50;99.90;;;;;;5016250;28;20250;-74
2022/11/08 04:48:07;;;;;;;2.83;1.43;;;12.40;99.90;;;;;;5016276;28;20210;-76
2022/11/08 04:50:35;;;;;;;1.80;1.23;;;12.40;99.90;;;;;;5016357;28;20207;-76
2022/11/08 04:53:03;;;;;;;2.97;1.40;;;12.40;99.90;;;;;;5015858;28;20210;-75
2022/11/08 04:55:30;;;;;;;1.30;1.20;;;12.50;99.90;;;;;;5016145;28;20206;-75
2022/11/08 04:57:58;;;;;;;4.17;1.10;;;12.40;99.90;;;;;;5016234;28;20203;-75
2022/11/08 05:00:26;;;;;;;3.30;1.20;;;12.50;99.90;;;;;;5016282;28;20207;-75
2022/11/08 05:02:53;;;;;;;2.47;1.83;;;12.50;99.90;;;;;;5016193;28;20214;-75
2022/11/08 05:05:20;;;;;;;1.20;1.03;;;12.40;99.90;;;;;;5016383;28;20230;-75
2022/11/08 05:07:47;;;;;;;2.87;1.13;;;12.40;99.90;;;;;;5015498;28;20230;-75
2022/11/08 05:10:15;;;;;;;3.97;1.70;;;12.40;99.90;;;;;;5016176;28;20230;-75
2022/11/08 05:12:42;;;;;;;1.90;1.37;;;12.50;99.90;;;;;;5015595;28;20219;-76
2022/11/08 05:15:09;;;;;;;4.60;1.40;;;12.50;99.90;;;;;;5015799;28;20213;-76
2022/11/08 05:17:36;;;;;;;3.67;1.50;;;12.50;99.90;;;;;;5015694;28;20745;-75
2022/11/08 05:25:37;;;;;;;3.20;1.20;;;12.50;99.90;;;;;;5015629;28;20369;-76
2022/11/08 05:28:04;;;;;;;2.00;1.37;;;12.50;99.90;;;;;;5015574;28;20218;-75
2022/11/08 05:30:31;;;;;;;2.83;1.10;;;12.50;99.90;;;;;;5015193;28;20551;-75
2022/11/08 05:32:58;;;;;;;4.10;1.70;;;12.50;99.90;;;;;;5015514;28;20218;-75
2022/11/08 05:35:24;;;;;;;2.43;1.53;;;12.50;99.90;;;;;;5015583;28;20210;-75
2022/11/08 05:37:51;;;;;;;2.97;1.20;;;12.40;99.90;;;;;;5015107;28;20587;-74
2022/11/08 05:40:18;;;;;;;5.40;1.50;;;12.50;99.90;;;;;;5015303;28;20219;-82
2022/11/08 05:42:46;;;;;;;2.17;1.40;;;12.40;99.90;;;;;;5015468;28;20207;-74
2022/11/08 05:45:13;;;;;;;2.87;1.53;;;12.40;99.90;;;;;;5015144;28;20245;-74
2022/11/08 05:47:44;;;;;;;2.23;1.40;;;12.50;99.90;;;;;;5015423;28;20213;-75
2022/11/08 05:50:11;;;;;;;1.30;1.20;;;12.50;99.90;;;;;;5015139;28;20219;-78
2022/11/08 05:52:38;;;;;;;1.87;1.23;;;12.50;99.90;;;;;;5014982;28;20210;-74
2022/11/08 05:55:05;;;;;;;2.57;1.50;;;12.50;99.90;;;;;;5015484;28;20199;-76
2022/11/08 05:57:32;;;;;;;1.93;1.40;;;12.50;99.90;;;;;;5015095;28;20214;-75
2022/11/08 06:00:00;;;;;;;3.70;1.40;;;12.60;99.90;;;;;;5015485;28;20206;-81
2022/11/08 06:02:28;;;;;;;1.50;1.40;;;12.60;99.90;;;;;;5015940;28;20228;-78
2022/11/08 06:04:55;;;;;;;4.88;2.95;;;12.40;99.90;;;;;;5017455;28;20445;-76
2022/11/08 06:07:22;;;;;;;1.53;1.20;;;12.40;99.90;;;;;;5014912;28;20223;-76
2022/11/08 06:09:49;;;;;;;1.40;1.30;;;12.40;99.90;;;;;;5024772;28;20221;-75
2022/11/08 06:12:15;;;;;;;2.60;1.20;;;12.50;99.90;;;;;;5018870;28;20221;-83
2022/11/08 06:14:43;;;;;;;4.83;1.40;;;12.20;99.90;;;;;;5014325;28;20590;-76
2022/11/08 06:17:12;;;;;;;4.90;1.67;;;12.50;99.90;;;;;;5014972;28;20218;-75
2022/11/08 06:19:38;;;;;;;2.37;1.40;;;12.50;99.90;;;;;;5034123;28;20198;-77
2022/11/08 06:22:05;;;;;;;4.50;1.30;;;12.40;99.90;;;;;;5021958;28;20213;-78
2022/11/08 06:24:32;;;;;;;2.50;1.20;;;12.40;99.90;;;;;;5014259;28;20202;-76
2022/11/08 06:26:59;;;;;;;3.77;1.67;;;12.40;99.90;;;;;;5013930;28;20230;-75
2022/11/08 06:29:26;;;;;;;4.07;1.53;;;12.30;99.90;;;;;;5014185;28;20206;-76
2022/11/08 06:31:52;;;;;;;1.40;1.30;;;12.30;99.90;;;;;;5014447;28;20211;-79
2022/11/08 06:34:21;;;;;;;4.18;1.50;;;12.30;99.90;;;;;;5016682;28;20447;-77
2022/11/08 06:36:48;;;;;;;4.57;1.40;;;12.30;99.90;;;;;;5013692;28;20561;-79
2022/11/08 06:39:14;;;;;;;2.83;1.27;;;12.30;99.90;;;;;;5013812;28;20198;-78
2022/11/08 06:41:42;;;;;;;2.20;1.40;;;12.30;99.90;;;;;;5013886;28;20218;-78
2022/11/08 06:44:09;;;;;;;3.97;1.60;;;12.40;99.90;;;;;;5014219;28;20213;-78
2022/11/08 06:46:36;;;;;;;3.37;1.50;;;12.40;99.90;;;;;;5024406;28;20226;-78
2022/11/08 06:49:03;;;;;;;2.83;1.67;;;12.30;99.90;;;;;;5023704;28;20217;-80
2022/11/08 06:51:31;;;;;;;5.93;1.47;;;12.40;99.90;;;;;;5031330;28;20213;-81
2022/11/08 06:53:58;;;;;;;1.90;1.50;;;12.30;99.90;;;;;;5020771;28;20229;-78
2022/11/08 06:56:25;;;;;;;1.83;1.40;;;12.20;99.90;;;;;;5013801;28;20261;-77
2022/11/08 06:58:52;;;;;;;2.57;1.97;;;12.30;99.90;;;;;;5025239;28;20216;-82
2022/11/08 07:01:21;;;;;;;1.80;1.60;;;12.30;99.90;;;;;;5015730;28;20213;-85
2022/11/08 07:03:48;;;;;;;3.53;1.60;;;12.30;99.90;;;;;;5013331;28;20209;-81
2022/11/08 07:06:14;;;;;;;6.00;1.70;;;12.30;99.90;;;;;;5015152;28;20453;-82
2022/11/08 07:08:46;;;;;;;3.80;1.80;;;12.20;99.90;;;;;;5028087;28;20225;-82
2022/11/08 07:11:12;;;;;;;5.30;1.70;;;12.20;99.90;;;;;;5024351;28;20574;-82
2022/11/08 07:13:39;;;;;;;3.97;2.20;;;12.20;99.90;;;;;;5013200;28;20692;-84
2022/11/08 07:16:06;;;;;;;3.20;1.57;;;12.20;99.90;;;;;;5013718;28;20210;-81
2022/11/08 07:18:33;;;;;;;3.57;1.63;;;12.20;99.90;;;;;;5013186;28;20211;-77
2022/11/08 07:21:01;;;;;;;3.87;1.60;;;12.30;99.90;;;;;;5013172;28;20240;-78
2022/11/08 07:23:28;;;;;;;4.13;1.90;;;12.30;99.90;;;;;;5013123;28;20206;-77
2022/11/08 07:25:59;;;;;;;3.73;2.00;;;12.30;99.90;;;;;;5016504;28;20230;-78
2022/11/08 07:28:26;;;;;;;5.37;2.17;;;12.30;99.90;;;;;;5040766;28;20289;-77
2022/11/08 07:30:58;;;;;;;4.23;1.70;;;12.30;99.90;;;;;;5037687;28;20561;-78
2022/11/08 07:33:25;;;;;;;3.47;1.70;;;12.40;99.90;;;;;;5032850;28;20711;-77
2022/11/08 07:35:52;;;;;;;2.87;1.37;;;12.40;99.90;;;;;;5033380;28;20198;-75
2022/11/08 07:38:20;;;;;;;3.43;1.90;;;12.40;99.90;;;;;;5032355;28;20218;-75
2022/11/08 07:40:47;;;;;;;3.73;1.67;;;12.40;99.90;;;;;;5032951;28;20649;-78
2022/11/08 07:43:15;;;;;;;3.13;1.70;;;12.40;99.90;;;;;;5033092;28;20209;-80
2022/11/08 07:45:42;;;;;;;7.80;2.03;;;12.40;99.90;;;;;;5032935;28;20259;-80
2022/11/08 07:48:11;;;;;;;4.03;1.60;;;12.40;99.90;;;;;;5040134;28;20284;-82
2022/11/08 07:50:39;;;;;;;3.23;1.90;;;12.50;99.90;;;;;;5039378;28;20194;-80
2022/11/08 07:53:05;;;;;;;2.77;1.47;;;12.70;99.90;;;;;;5043572;28;20202;-77
2022/11/08 07:55:35;;;;;;;1.93;1.70;;;12.60;99.90;;;;;;5044178;28;20648;-79
2022/11/08 07:58:02;;;;;;;4.43;1.77;;;12.70;99.90;;;;;;5052025;28;20214;-78
2022/11/08 08:00:30;;;;;;;2.17;1.80;;;12.80;99.90;;;;;;5047233;28;20265;-78
2022/11/08 08:02:58;;;;;;;1.97;1.50;;;12.90;99.90;;;;;;5021859;28;20214;-78
2022/11/08 08:05:25;;;;;;;4.33;1.83;;;12.90;99.90;;;;;;5014888;28;20274;-77
2022/11/08 08:07:52;;;;;;;3.63;2.03;;;12.90;99.90;;;;;;5031077;28;20439;-79
2022/11/08 08:10:19;;;;;;;4.63;1.63;;;13.00;99.90;;;;;;5032353;28;20657;-80
2022/11/08 08:12:46;;;;;;;3.10;1.77;;;13.00;99.90;;;;;;5038295;28;20566;-77
2022/11/08 08:15:13;;;;;;;2.00;1.70;;;13.00;99.90;;;;;;5052024;28;20652;-78
2022/11/08 08:17:41;;;;;;;4.83;1.50;;;13.00;99.90;;;;;;5040752;28;20551;-77
2022/11/08 08:20:09;;;;;;;2.10;1.80;;;13.10;99.90;;;;;;5043295;28;20218;-79
2022/11/08 08:22:36;;;;;;;1.90;1.63;;;13.10;99.90;;;;;;5041814;28;20198;-79
2022/11/08 08:25:03;;;;;;;4.10;1.57;;;13.20;99.90;;;;;;5041674;28;20204;-77
2022/11/08 08:27:29;;;;;;;7.77;1.80;;;13.20;99.90;;;;;;5032209;28;20203;-77
2022/11/08 08:29:56;;;;;;;2.23;1.40;;;13.20;99.90;;;;;;5023808;28;20213;-79
2022/11/08 08:32:23;;;;;;;5.23;2.10;;;13.20;99.90;;;;;;5026897;28;20207;-76
2022/11/08 08:34:51;;;;;;;2.60;1.87;;;13.30;99.90;;;;;;5034609;28;20207;-81
2022/11/08 08:37:18;;;;;;;3.17;1.90;;;13.40;99.90;;;;;;5031613;28;20439;-81
2022/11/08 08:39:45;;;;;;;4.03;1.93;;;13.40;99.90;;;;;;5022728;28;20693;-80
2022/11/08 08:42:12;;;;;;;4.20;1.70;;;13.40;99.90;;;;;;5020670;28;20222;-77
2022/11/08 08:44:38;;;;;;;4.33;2.00;;;13.40;99.90;;;;;;5013460;28;20214;-77
2022/11/08 08:47:05;;;;;;;1.43;1.33;;;13.50;99.90;;;;;;5026151;28;20577;-79
2022/11/08 08:49:32;;;;;;;3.77;1.40;;;13.50;99.90;;;;;;5032756;28;20666;-79
2022/11/08 08:52:00;;;;;;;3.20;1.63;;;13.60;99.90;;;;;;5035113;28;20207;-77
2022/11/08 08:54:27;;;;;;;1.73;1.63;;;13.60;99.90;;;;;;5035611;28;20200;-78
2022/11/08 08:56:54;;;;;;;1.80;1.60;;;13.50;99.90;;;;;;5018674;28;20212;-81
2022/11/08 08:59:20;;;;;;;4.00;1.90;;;13.70;99.90;;;;;;5015660;28;20214;-80
2022/11/08 09:01:47;;;;;;;4.67;1.60;;;13.60;99.90;;;;;;5015954;28;20206;-77
2022/11/08 09:04:14;;;;;;;4.70;1.50;;;13.80;99.90;;;;;;5022911;28;20199;-81
2022/11/08 09:06:41;;;;;;;3.15;1.80;;;13.80;99.90;;;;;;5031873;28;20460;-79
2022/11/08 09:09:09;;;;;;;6.07;2.10;;;14.00;99.90;;;;;;5015670;28;20203;-81
2022/11/08 09:11:37;;;;;;;4.17;1.73;;;13.90;99.90;;;;;;5015644;28;20207;-84
2022/11/08 09:14:04;;;;;;;2.97;1.83;;;13.90;99.90;;;;;;5026538;28;20211;-79
2022/11/08 09:16:31;;;;;;;2.83;1.67;;;13.90;99.90;;;;;;5037107;28;20290;-81
2022/11/08 09:18:57;;;;;;;4.43;1.43;;;13.90;99.90;;;;;;5036646;28;20195;-80
2022/11/08 09:21:24;;;;;;;3.30;1.67;;;14.00;99.90;;;;;;5034838;28;20202;-82
2022/11/08 09:23:51;;;;;;;5.87;1.70;;;14.00;99.90;;;;;;5034913;28;20204;-78
2022/11/08 09:26:19;;;;;;;2.67;1.80;;;14.00;99.90;;;;;;5037149;28;20227;-77
2022/11/08 09:28:46;;;;;;;4.63;1.87;;;14.10;99.90;;;;;;5036414;28;20222;-78
2022/11/08 09:31:14;;;;;;;2.73;1.70;;;14.10;99.90;;;;;;5034540;28;20215;-83
2022/11/08 09:33:41;;;;;;;3.60;1.60;;;14.10;99.90;;;;;;5022881;28;20212;-83
2022/11/08 09:36:11;;;;;;;2.30;1.43;;;14.20;99.90;;;;;;5027437;28;20594;-79
2022/11/08 09:38:38;;;;;;;6.30;1.43;;;14.20;99.90;;;;;;5014250;28;20207;-79
2022/11/08 09:41:34;;;;;;;2.00;1.50;;;14.30;99.90;;;;;;5028329;28;20209;-81
2022/11/08 09:44:22;;;;;;;1.70;1.33;;;14.40;99.90;;;;;;5010169;28;20214;-79
2022/11/08 09:46:52;;;;;;;1.57;1.47;;;14.40;99.90;;;;;;5014480;28;20232;-78
2022/11/08 09:49:24;;;;;;;1.70;1.37;;;14.20;99.90;;;;;;5014534;28;20207;-80
2022/11/08 09:51:51;;;;;;;3.60;1.60;;;14.30;99.90;;;;;;5016916;28;20199;-80
2022/11/08 09:54:22;;;;;;;5.03;1.93;;;14.30;99.90;;;;;;5026187;28;20572;-80
2022/11/08 09:56:51;;;;;;;3.63;1.67;;;14.50;99.90;;;;;;5031956;28;20747;-81
2022/11/08 09:59:31;;;;;;;5.27;1.83;;;14.60;99.90;;;;;;5030125;28;20285;-82
2022/11/08 10:01:58;;;;;;;4.70;1.67;;;14.70;99.90;;;;;;5025571;28;20207;-76
2022/11/08 10:04:28;;;;;;;4.40;1.60;;;14.60;99.90;;;;;;5030175;28;20200;-77
2022/11/08 10:07:19;;;;;;;2.70;1.80;;;14.70;99.90;;;;;;5019587;28;20243;-75
2022/11/08 10:10:00;;;;;;;1.70;1.43;;;14.80;99.90;;;;;;5013746;28;20205;-81
2022/11/08 10:12:35;;;;;;;2.87;1.60;;;14.80;99.90;;;;;;5027997;28;20206;-81
2022/11/08 10:15:21;;;;;;;2.37;1.43;;;14.80;99.90;;;;;;4972778;28;1227935;-80
2022/11/08 10:18:00;;;;;;;2.30;1.90;;;14.80;99.90;;;;;;5015045;28;20214;-79
2022/11/08 10:20:38;;;;;;;2.20;1.50;;;14.80;99.90;;;;;;5014901;28;20215;-80
2022/11/08 10:23:20;;;;;;;4.80;1.73;;;14.80;99.90;;;;;;5014772;28;20220;-86
2022/11/08 10:25:50;;;;;;;3.13;1.87;;;14.80;99.90;;;;;;5030701;28;20208;-83
2022/11/08 10:28:20;;;;;;;3.10;1.40;;;14.80;99.90;;;;;;5033944;28;20205;-85
2022/11/08 10:30:51;;;;;;;2.67;1.73;;;14.80;99.90;;;;;;5020136;28;20201;-83
2022/11/08 10:33:21;;;;;;;3.73;1.70;;;14.80;99.90;;;;;;5014787;28;20210;-83
2022/11/08 10:35:54;;;;;;;7.37;1.93;;;14.80;99.90;;;;;;5028403;28;20592;-81
2022/11/08 10:38:24;;;;;;;2.53;1.73;;;14.90;99.90;;;;;;5026072;28;20201;-79
2022/11/08 10:40:58;;;;;;;2.53;1.70;;;14.90;99.90;;;;;;5032023;28;20206;-80
2022/11/08 10:43:32;;;;;;;5.43;1.73;;;15.10;99.90;;;;;;5028486;28;20208;-80
2022/11/08 10:46:01;;;;;;;3.27;1.80;;;15.10;99.90;;;;;;5016040;28;20225;-84
2022/11/08 10:48:28;;;;;;;4.17;1.70;;;15.10;99.90;;;;;;5034504;28;20198;-86
2022/11/08 10:50:54;;;;;;;2.60;1.50;;;15.30;99.90;;;;;;5019882;28;20669;-91
2022/11/08 10:53:25;;;;;;;3.43;1.90;;;15.30;99.90;;;;;;5034460;28;20241;-82
2022/11/08 10:55:59;;;;;;;4.93;1.77;;;15.50;99.90;;;;;;5033620;28;20220;-91
2022/11/08 10:58:31;;;;;;;3.93;1.63;;;15.50;99.90;;;;;;5023126;28;20217;-80
2022/11/08 11:01:07;;;;;;;4.53;1.83;;;15.60;99.90;;;;;;5021031;28;20553;-80
2022/11/08 11:03:35;;;;;;;3.00;1.80;;;15.60;99.90;;;;;;5016328;28;20206;-80
2022/11/08 11:06:03;;;;;;;4.15;2.15;;;15.50;99.90;;;;;;5032304;28;20446;-81
2022/11/08 11:08:31;;;;;;;2.20;1.80;;;15.40;99.90;;;;;;5033979;28;20208;-81
2022/11/08 11:11:22;;;;;;;2.40;1.57;;;15.40;99.90;;;;;;5038998;28;20215;-81
2022/11/08 11:14:05;;;;;;;3.70;1.70;;;15.40;99.90;;;;;;5032295;28;20220;-81
2022/11/08 11:16:34;;;;;;;4.00;2.33;;;15.50;99.90;;;;;;5016108;28;20210;-81
2022/11/08 11:19:03;;;;;;;3.10;1.70;;;15.70;99.90;;;;;;5033312;28;20213;-81
2022/11/08 11:21:36;;;;;;;5.40;1.63;;;15.70;99.90;;;;;;5014996;28;20211;-83
2022/11/08 11:24:10;;;;;;;3.70;1.73;;;15.80;99.90;;;;;;5013210;28;20660;-81
2022/11/08 11:26:41;;;;;;;2.90;1.70;;;15.60;99.90;;;;;;5013478;28;20695;-81
2022/11/08 11:29:21;;;;;;;2.37;1.73;;;15.60;99.90;;;;;;5031685;28;20564;-82
2022/11/08 11:31:53;;;;;;;4.87;1.70;;;15.60;99.90;;;;;;5033384;28;20654;-83
2022/11/08 11:34:42;;;;;;;2.23;1.83;;;15.60;99.90;;;;;;5033913;28;20224;-84
2022/11/08 11:37:19;;;;;;;5.33;1.80;;;15.50;99.90;;;;;;5019387;28;20206;-82
2022/11/08 11:40:05;;;;;;;6.07;1.83;;;15.60;99.90;;;;;;5035250;28;20727;-81
2022/11/08 11:42:41;;;;;;;4.37;2.20;;;15.60;99.90;;;;;;5016523;28;20210;-81
2022/11/08 11:45:16;;;;;;;2.00;1.50;;;15.70;99.90;;;;;;5013480;28;20199;-81
2022/11/08 11:47:46;;;;;;;2.80;1.60;;;15.90;99.90;;;;;;5027211;28;20219;-81
2022/11/08 11:50:22;;;;;;;4.00;2.03;;;15.90;99.90;;;;;;5024369;28;20561;-81
2022/11/08 11:52:48;;;;;;;3.73;1.93;;;15.90;99.90;;;;;;5014943;28;20571;-80
2022/11/08 11:55:16;;;;;;;2.13;1.93;;;16.00;99.90;;;;;;5013286;28;20575;-82
2022/11/08 11:57:56;;;;;;;4.27;1.77;;;16.10;99.90;;;;;;5013446;28;20216;-81
2022/11/08 12:00:23;;;;;;;5.83;2.47;;;16.10;99.90;;;;;;5013436;28;20206;-83
2022/11/08 12:03:30;;;;;;;3.63;1.57;;;16.10;99.90;;;;;;5013381;28;20210;-82
2022/11/08 12:06:20;;;;;;;7.13;2.00;;;16.10;99.90;;;;;;5013055;28;20229;-81
2022/11/08 12:08:58;;;;;;;5.47;1.77;;;16.10;99.90;;;;;;5029029;28;20469;-81
2022/11/08 12:11:43;;;;;;;1.87;1.53;;;16.20;99.90;;;;;;5026525;28;20440;-82
2022/11/08 12:14:30;;;;;;;3.20;1.87;;;16.20;99.90;;;;;;5012642;28;20219;-84
2022/11/08 12:17:19;;;;;;;4.97;1.90;;;16.10;99.90;;;;;;5013169;28;20211;-86
2022/11/08 12:20:06;;;;;;;3.30;2.03;;;16.10;99.90;;;;;;5013341;28;20214;-81
2022/11/08 12:22:48;;;;;;;5.20;1.60;;;16.10;99.90;;;;;;5022981;28;20574;-83
2022/11/08 12:25:23;;;;;;;2.47;1.60;;;16.20;99.90;;;;;;5029676;28;20657;-81
2022/11/08 12:27:53;;;;;;;4.37;1.80;;;16.10;99.90;;;;;;5016991;28;20240;-85
2022/11/08 12:30:36;;;;;;;4.20;1.87;;;16.10;99.90;;;;;;5018875;28;20741;-83
2022/11/08 12:33:26;;;;;;;3.17;1.67;;;16.20;99.90;;;;;;5028749;28;20211;-82
2022/11/08 12:36:11;;;;;;;2.37;1.73;;;16.30;99.90;;;;;;5020772;28;20210;-81
2022/11/08 12:38:55;;;;;;;5.23;2.00;;;16.30;99.90;;;;;;5024040;28;20503;-81
2022/11/08 12:41:29;;;;;;;6.37;1.70;;;16.20;99.90;;;;;;5017258;28;20205;-80
2022/11/08 12:44:19;;;;;;;4.80;1.80;;;16.20;99.90;;;;;;5017044;28;20659;-80
2022/11/08 12:46:58;;;;;;;3.27;1.63;;;16.20;99.90;;;;;;5016822;28;20319;-81
2022/11/08 12:49:36;;;;;;;7.87;1.70;;;16.20;99.90;;;;;;5020935;28;20213;-81
2022/11/08 12:52:21;;;;;;;6.17;1.97;;;16.20;99.90;;;;;;5024319;28;20218;-83
2022/11/08 12:54:52;;;;;;;3.83;1.70;;;16.30;99.90;;;;;;5016977;28;20211;-80
2022/11/08 12:57:21;;;;;;;5.50;1.90;;;16.40;99.90;;;;;;5016125;28;20207;-80
2022/11/08 12:59:52;;;;;;;3.57;1.90;;;16.40;99.90;;;;;;5029999;28;20202;-82
2022/11/08 13:02:24;;;;;;;5.87;1.77;;;16.40;99.90;;;;;;5027992;28;20214;-82
2022/11/08 13:05:00;;;;;;;4.27;2.20;;;16.40;99.90;;;;;;5016638;28;20211;-81
2022/11/08 13:07:39;;;;;;;7.23;2.50;;;16.40;99.90;;;;;;5016046;28;20232;-81
2022/11/08 13:10:15;;;;;;;5.30;2.33;;;16.60;99.90;;;;;;5020897;28;20906;-80
2022/11/08 13:12:59;;;;;;;7.53;1.90;;;16.60;99.90;;;;;;5016549;28;20223;-81
2022/11/08 13:15:28;;;;;;;3.60;1.47;;;16.50;99.90;;;;;;5033002;28;20204;-81
2022/11/08 13:18:31;;;;;;;3.23;1.70;;;16.40;99.90;;;;;;5036313;28;20900;-81
2022/11/08 13:20:59;;;;;;;6.83;1.90;;;16.40;99.90;;;;;;5037421;28;20211;-80
2022/11/08 13:23:30;;;;;;;7.63;2.00;;;16.40;99.90;;;;;;5036417;28;20212;-87
2022/11/08 13:26:17;;;;;;;3.30;1.67;;;16.50;99.90;;;;;;5023595;28;20207;-80